Time;durP1;ratioP1;P1;durP2;ratioP2;P2;SDS_P1;SDS_P2;PMS_P1;PMS_P2;Temp;Humidity;BMP_temperature;BMP_pressure;BME280_temperature;BME280_humidity;BME280_pressure;Samples;Min_cycle;Max_cycle;Signal;HPM_P1;HPM_P2
2022/06/04 00:01:40;;;;;;;0.10;0.10;;;;;;;16.77;54.82;101731.69;7360818;19;20033;-63
2022/06/04 00:04:06;;;;;;;0.03;0.03;;;;;;;16.80;54.72;101734.22;7353764;19;20890;-63
2022/06/04 00:06:31;;;;;;;0.00;0.00;;;;;;;16.81;54.21;101734.19;7350548;19;20482;-64
2022/06/04 00:08:57;;;;;;;0.00;0.00;;;;;;;16.79;54.77;101738.66;7349991;19;20015;-65
2022/06/04 00:17:07;;;;;;;0.00;0.00;;;;;;;16.81;54.71;101741.22;7249334;19;2004341;-63
2022/06/04 00:19:33;;;;;;;0.00;0.00;;;;;;;16.80;54.69;101743.00;7360120;19;20428;-67
2022/06/04 00:22:00;;;;;;;0.00;0.00;;;;;;;16.81;55.17;101742.09;7362026;19;20013;-67
2022/06/04 00:24:26;;;;;;;0.00;0.00;;;;;;;16.74;54.59;101737.94;7363452;19;20018;-67
2022/06/04 00:26:52;;;;;;;0.00;0.00;;;;;;;16.78;54.89;101736.94;7351133;19;20010;-65
2022/06/04 00:29:18;;;;;;;0.00;0.00;;;;;;;16.73;54.67;101733.56;7362298;19;20037;-66
2022/06/04 00:31:43;;;;;;;0.10;0.10;;;;;;;16.76;54.93;101741.38;7365481;19;20102;-64
2022/06/04 00:34:09;;;;;;;0.00;0.00;;;;;;;16.76;54.95;101740.50;7356022;19;20014;-63
2022/06/04 00:36:35;;;;;;;0.00;0.00;;;;;;;16.74;54.70;101735.28;7364239;19;20179;-67
2022/06/04 00:39:00;;;;;;;0.00;0.00;;;;;;;16.74;55.30;101737.94;7362730;19;20446;-65
2022/06/04 00:41:47;;;;;;;0.00;0.00;;;;;;;16.75;53.44;101737.00;7364080;19;20018;-67
2022/06/04 00:44:13;;;;;;;;;;;;;;;16.74;52.11;101743.22;7366361;19;20006;-66
2022/06/04 00:46:42;;;;;;;0.00;0.00;;;;;;;16.71;54.46;101739.75;7365511;19;19922;-66
2022/06/04 00:49:18;;;;;;;0.10;0.10;;;;;;;16.67;55.35;101728.44;7365595;19;20006;-67
2022/06/04 00:51:48;;;;;;;0.10;0.10;;;;;;;16.60;55.34;101721.63;7364838;19;20117;-67
2022/06/04 00:54:13;;;;;;;0.00;0.00;;;;;;;16.54;55.11;101724.47;7364003;19;20055;-66
2022/06/04 00:56:43;;;;;;;0.00;0.00;;;;;;;16.50;54.78;101709.66;7366924;19;20022;-66
2022/06/04 00:59:24;;;;;;;0.00;0.00;;;;;;;16.60;54.35;101729.56;7363741;19;20029;-65
2022/06/04 01:02:12;;;;;;;0.00;0.00;;;;;;;16.57;54.46;101729.63;7366710;19;20010;-64
2022/06/04 01:04:58;;;;;;;0.00;0.00;;;;;;;16.54;55.59;101738.53;7367315;19;20023;-67
2022/06/04 01:08:02;;;;;;;0.00;0.00;;;;;;;16.52;53.30;101728.91;7367150;19;20816;-63
2022/06/04 01:10:33;;;;;;;0.00;0.00;;;;;;;16.47;55.44;101730.84;7262704;19;2004306;-66
2022/06/04 01:13:07;;;;;;;0.00;0.00;;;;;;;16.44;54.88;101736.22;7367333;19;20434;-67
2022/06/04 01:15:57;;;;;;;0.00;0.00;;;;;;;16.40;55.00;101737.22;7365421;19;20468;-67
2022/06/04 01:18:52;;;;;;;0.00;0.00;;;;;;;16.35;54.00;101732.94;7367457;19;20002;-66
2022/06/04 01:21:24;;;;;;;0.00;0.00;;;;;;;16.29;55.43;101733.13;7267117;19;2004430;-64
2022/06/04 01:24:14;;;;;;;0.00;0.00;;;;;;;16.26;53.99;101725.31;7368639;19;20094;-67
2022/06/04 01:26:52;;;;;;;0.00;0.00;;;;;;;16.21;54.86;101729.84;7365984;19;19998;-65
2022/06/04 01:29:36;;;;;;;0.00;0.00;;;;;;;16.18;54.87;101729.97;7367430;19;20041;-67
2022/06/04 01:32:09;;;;;;;0.00;0.00;;;;;;;16.12;55.99;101740.69;7366539;19;20003;-66
2022/06/04 01:35:00;;;;;;;0.00;0.00;;;;;;;16.08;54.81;101733.78;7366204;19;20617;-66
2022/06/04 01:37:38;;;;;;;0.00;0.00;;;;;;;15.98;55.38;101732.31;7366894;19;20623;-66
2022/06/04 01:42:54;;;;;;;0.00;0.00;;;;;;;15.89;56.32;101737.84;7365045;19;20017;-63
2022/06/04 01:45:22;;;;;;;0.00;0.00;;;;;;;15.57;56.25;101686.91;7365250;19;20010;-66
2022/06/04 01:47:52;;;;;;;0.00;0.00;;;;;;;15.76;56.36;101740.81;7365094;19;20006;-66
2022/06/04 01:50:24;;;;;;;0.00;0.00;;;;;;;15.73;57.08;101738.25;7364504;19;20010;-67
2022/06/04 01:52:52;;;;;;;0.00;0.00;;;;;;;15.62;57.18;101729.75;7366223;19;20010;-66
2022/06/04 01:55:30;;;;;;;0.00;0.00;;;;;;;15.58;56.67;101723.72;7366732;19;20021;-65
2022/06/04 01:58:03;;;;;;;0.00;0.00;;;;;;;15.60;56.81;101734.19;7356214;19;20986;-64
2022/06/04 02:00:35;;;;;;;0.00;0.00;;;;;;;15.57;56.86;101731.66;7364142;19;20465;-67
2022/06/04 02:03:07;;;;;;;0.00;0.00;;;;;;;15.54;57.68;101737.00;7364015;19;20014;-64
2022/06/04 02:05:38;;;;;;;0.00;0.00;;;;;;;15.51;57.56;101743.22;7362645;19;20013;-67
2022/06/04 02:08:06;;;;;;;0.00;0.00;;;;;;;15.47;57.51;101741.56;7365742;19;20007;-66
2022/06/04 02:10:36;;;;;;;0.00;0.00;;;;;;;15.45;57.73;101734.59;7365198;19;20071;-66
2022/06/04 02:13:05;;;;;;;0.00;0.00;;;;;;;15.47;57.45;101735.44;7362096;19;20046;-66
2022/06/04 02:15:37;;;;;;;0.00;0.00;;;;;;;15.46;57.23;101741.59;7366944;19;20407;-63
2022/06/04 02:18:04;;;;;;;0.00;0.00;;;;;;;15.43;57.78;101736.41;7357725;19;20013;-65
2022/06/04 02:20:29;;;;;;;0.00;0.00;;;;;;;15.28;57.69;101719.25;7366285;19;21883;-66
2022/06/04 02:22:55;;;;;;;0.00;0.00;;;;;;;15.37;58.12;101736.59;7364270;19;20035;-66
2022/06/04 02:25:21;;;;;;;0.00;0.00;;;;;;;15.27;57.75;101722.81;7362810;19;20100;-66
2022/06/04 02:27:49;;;;;;;0.00;0.00;;;;;;;15.36;57.99;101742.72;7365360;19;20845;-65
2022/06/04 02:30:15;;;;;;;0.00;0.00;;;;;;;15.23;58.47;101737.78;7362436;19;20018;-67
2022/06/04 02:32:53;;;;;;;0.00;0.00;;;;;;;15.33;57.80;101748.97;7365032;19;20025;-66
2022/06/04 02:35:44;;;;;;;0.10;0.10;;;;;;;15.34;57.36;101757.72;7363674;19;20904;-66
2022/06/04 02:38:43;;;;;;;0.00;0.00;;;;;;;15.29;56.70;101748.16;7260754;19;2004265;-66
2022/06/04 02:41:09;;;;;;;0.00;0.00;;;;;;;15.28;58.05;101761.38;7257333;19;2004016;-63
2022/06/04 02:43:34;;;;;;;0.00;0.00;;;;;;;15.27;58.55;101755.25;7361486;19;20010;-66
2022/06/04 02:46:14;;;;;;;0.00;0.00;;;;;;;15.23;57.92;101750.94;7364495;19;20654;-65
2022/06/04 02:48:45;;;;;;;0.00;0.00;;;;;;;15.20;58.43;101751.00;7351462;19;20106;-63
2022/06/04 02:51:16;;;;;;;0.00;0.00;;;;;;;15.26;58.16;101757.91;7361813;19;20023;-66
2022/06/04 02:53:42;;;;;;;0.00;0.00;;;;;;;15.26;58.36;101765.81;7364747;19;20010;-66
2022/06/04 02:56:13;;;;;;;0.00;0.00;;;;;;;15.28;58.16;101770.13;7363937;19;20018;-66
2022/06/04 02:58:42;;;;;;;0.00;0.00;;;;;;;15.25;58.49;101767.56;7363453;19;20010;-67
2022/06/04 03:01:09;;;;;;;0.00;0.00;;;;;;;15.26;58.13;101763.19;7359825;19;20023;-63
2022/06/04 03:03:36;;;;;;;0.00;0.00;;;;;;;15.23;58.09;101766.75;7358597;19;20014;-64
2022/06/04 03:06:06;;;;;;;0.00;0.00;;;;;;;15.25;58.30;101762.28;7306158;19;20014;-64
2022/06/04 03:08:35;;;;;;;0.00;0.00;;;;;;;15.25;58.37;101771.97;7302243;19;20025;-64
2022/06/04 03:11:02;;;;;;;0.00;0.00;;;;;;;15.23;57.99;101769.38;7305903;19;20014;-63
2022/06/04 03:13:29;;;;;;;0.00;0.00;;;;;;;15.23;58.48;101774.63;7303887;19;20638;-65
2022/06/04 03:15:55;;;;;;;0.00;0.00;;;;;;;15.23;58.08;101774.63;7350410;19;20015;-67
2022/06/04 03:18:21;;;;;;;0.00;0.00;;;;;;;15.16;57.56;101751.16;7353186;19;20025;-66
2022/06/04 03:20:47;;;;;;;0.00;0.00;;;;;;;15.23;57.86;101777.25;7361235;19;20419;-65
2022/06/04 03:23:13;;;;;;;0.00;0.00;;;;;;;15.18;57.90;101765.13;7362473;19;20635;-64
2022/06/04 03:25:39;;;;;;;0.00;0.00;;;;;;;15.20;58.23;101769.44;7364573;19;20018;-66
2022/06/04 03:28:06;;;;;;;0.00;0.00;;;;;;;15.19;58.22;101772.97;7364275;19;20010;-66
2022/06/04 03:30:32;;;;;;;0.00;0.00;;;;;;;15.12;58.24;101754.75;7362606;19;20015;-64
2022/06/04 03:32:57;;;;;;;0.00;0.00;;;;;;;15.20;58.06;101774.69;7365391;19;20015;-65
2022/06/04 03:35:23;;;;;;;0.00;0.00;;;;;;;15.20;58.23;101779.97;7327726;19;21256;-64
2022/06/04 03:37:49;;;;;;;0.00;0.00;;;;;;;15.19;57.93;101772.97;7366947;19;20010;-65
2022/06/04 03:40:15;;;;;;;0.00;0.00;;;;;;;15.21;58.21;101775.59;7362073;19;20022;-64
2022/06/04 03:42:41;;;;;;;0.00;0.00;;;;;;;15.05;57.84;101754.03;7365551;19;20342;-61
2022/06/04 03:45:10;;;;;;;0.00;0.00;;;;;;;15.08;58.18;101764.50;7360483;19;20102;-63
2022/06/04 03:47:36;;;;;;;0.00;0.00;;;;;;;15.20;58.08;101784.38;7364180;19;20014;-66
2022/06/04 03:50:08;;;;;;;0.00;0.00;;;;;;;15.22;57.53;101788.69;7334103;19;20914;-66
2022/06/04 03:52:39;;;;;;;0.03;0.03;;;;;;;15.21;58.01;101791.38;7317312;19;20018;-63
2022/06/04 03:55:05;;;;;;;0.00;0.00;;;;;;;15.18;58.18;101786.19;7306075;19;20623;-67
2022/06/04 03:57:39;;;;;;;0.00;0.00;;;;;;;15.18;58.00;101789.66;7359399;19;20010;-66
2022/06/04 04:00:23;;;;;;;0.00;0.00;;;;;;;15.17;57.87;101789.72;7363810;19;20010;-66
2022/06/04 04:03:00;;;;;;;0.00;0.00;;;;;;;15.13;57.84;101791.56;7364981;19;20034;-66
2022/06/04 04:05:30;;;;;;;0.00;0.00;;;;;;;15.15;58.27;101796.75;7364095;19;20074;-66
2022/06/04 04:07:57;;;;;;;0.00;0.00;;;;;;;15.13;58.27;101804.72;7362056;19;20110;-66
2022/06/04 04:10:25;;;;;;;0.00;0.00;;;;;;;15.12;58.45;101795.09;7364140;19;20489;-63
2022/06/04 04:12:51;;;;;;;0.00;0.00;;;;;;;15.12;58.75;101802.13;7363836;19;20115;-66
2022/06/04 04:15:17;;;;;;;0.00;0.00;;;;;;;15.11;58.81;101801.25;7363970;19;20014;-66
2022/06/04 04:17:43;;;;;;;0.00;0.00;;;;;;;15.10;58.97;101799.50;7362031;19;20034;-66
2022/06/04 04:20:18;;;;;;;0.00;0.00;;;;;;;15.11;58.83;101809.16;7362907;19;20018;-65
2022/06/04 04:22:44;;;;;;;0.00;0.00;;;;;;;15.09;58.94;101803.03;7362955;19;20091;-66
2022/06/04 04:25:10;;;;;;;0.00;0.00;;;;;;;14.89;59.01;101763.19;7363519;19;21358;-64
2022/06/04 04:27:36;;;;;;;0.00;0.00;;;;;;;14.95;58.92;101789.34;7361662;19;20017;-65
2022/06/04 04:30:05;;;;;;;0.00;0.00;;;;;;;15.09;59.15;101805.69;7363743;19;20064;-66
2022/06/04 04:32:31;;;;;;;0.00;0.00;;;;;;;15.06;58.97;101800.50;7363185;19;20018;-65
2022/06/04 04:34:57;;;;;;;0.00;0.00;;;;;;;15.04;59.24;101805.78;7362350;19;20030;-65
2022/06/04 04:37:23;;;;;;;0.00;0.00;;;;;;;14.95;59.35;101802.50;7362131;19;20014;-66
2022/06/04 04:39:48;;;;;;;0.00;0.00;;;;;;;14.98;59.71;101807.69;7362457;19;20023;-64
2022/06/04 04:42:14;;;;;;;0.00;0.00;;;;;;;15.02;59.54;101820.75;7361696;19;20010;-66
2022/06/04 04:44:39;;;;;;;0.00;0.00;;;;;;;15.02;59.10;101827.78;7361885;19;20027;-66
2022/06/04 04:47:04;;;;;;;0.00;0.00;;;;;;;15.00;59.38;101830.44;7362026;19;20878;-66
2022/06/04 04:49:30;;;;;;;0.00;0.00;;;;;;;14.97;58.86;101829.66;7361545;19;20037;-64
2022/06/04 04:51:55;;;;;;;0.00;0.00;;;;;;;14.98;58.91;101831.38;7362415;19;20033;-66
2022/06/04 04:54:21;;;;;;;0.00;0.00;;;;;;;14.93;59.05;101827.97;7363411;19;20019;-65
2022/06/04 04:56:46;;;;;;;0.00;0.00;;;;;;;14.96;59.05;101827.94;7359429;19;20014;-66
2022/06/04 04:59:12;;;;;;;0.00;0.00;;;;;;;14.95;59.25;101836.69;7362201;19;20027;-65
2022/06/04 05:01:37;;;;;;;0.00;0.00;;;;;;;14.93;58.96;101833.25;7360301;19;20010;-66
2022/06/04 05:04:03;;;;;;;0.00;0.00;;;;;;;14.90;59.69;101825.41;7364533;19;20002;-66
2022/06/04 05:06:29;;;;;;;0.00;0.00;;;;;;;14.93;59.39;101833.25;7368478;19;20006;-65
2022/06/04 05:08:54;;;;;;;0.00;0.00;;;;;;;14.69;59.87;101796.06;7367285;19;20605;-64
2022/06/04 05:11:29;;;;;;;0.00;0.00;;;;;;;14.99;59.21;101833.09;7367749;19;20345;-66
2022/06/04 05:13:56;;;;;;;0.00;0.00;;;;;;;15.02;60.12;101840.94;7366956;19;20011;-66
2022/06/04 05:16:26;;;;;;;0.10;0.10;;;;;;;15.06;60.10;101839.97;7369095;19;20803;-65
2022/06/04 05:18:51;;;;;;;0.00;0.00;;;;;;;15.01;60.02;101826.91;7367119;19;20026;-65
2022/06/04 05:21:47;;;;;;;0.00;0.00;;;;;;;15.16;58.24;101844.09;7363981;19;20014;-66
2022/06/04 05:24:22;;;;;;;0.10;0.10;;;;;;;15.10;59.31;101833.72;7264649;19;2004298;-65
2022/06/04 05:26:48;;;;;;;0.00;0.00;;;;;;;15.07;60.02;101835.56;7367145;19;20012;-63
2022/06/04 05:29:13;;;;;;;0.10;0.10;;;;;;;15.19;59.98;101851.91;7368338;19;20115;-65
2022/06/04 05:31:39;;;;;;;0.00;0.00;;;;;;;15.21;59.60;101854.53;7366777;19;20346;-66
2022/06/04 05:34:06;;;;;;;0.00;0.00;;;;;;;15.22;59.81;101857.13;7367166;19;20017;-66
2022/06/04 05:36:32;;;;;;;0.00;0.00;;;;;;;15.25;60.06;101867.56;7366541;19;20007;-66
2022/06/04 05:38:57;;;;;;;0.00;0.00;;;;;;;15.23;59.72;101858.84;7367728;19;20003;-66
2022/06/04 05:41:23;;;;;;;0.00;0.00;;;;;;;14.99;59.94;101812.06;7366562;19;20753;-65
2022/06/04 05:43:48;;;;;;;0.05;0.05;;;;;;;15.30;59.67;101865.69;7369058;19;20019;-65
2022/06/04 05:46:19;;;;;;;0.00;0.00;;;;;;;15.31;59.83;101867.44;7366713;19;20795;-67
2022/06/04 05:48:46;;;;;;;0.00;0.00;;;;;;;15.35;59.84;101867.34;7369364;19;20591;-66
2022/06/04 05:51:14;;;;;;;0.00;0.00;;;;;;;15.39;59.64;101863.75;7365541;19;20849;-64
2022/06/04 05:53:40;;;;;;;0.00;0.00;;;;;;;15.40;59.50;101870.72;7368445;19;20584;-64
2022/06/04 05:56:13;;;;;;;0.10;0.10;;;;;;;15.47;58.87;101872.31;7365968;19;20007;-65
2022/06/04 05:58:39;;;;;;;0.00;0.00;;;;;;;15.34;58.90;101848.06;7363633;19;20086;-65
2022/06/04 06:01:04;;;;;;;0.00;0.00;;;;;;;15.50;58.56;101877.50;7367767;19;20081;-65
2022/06/04 06:03:30;;;;;;;0.00;0.00;;;;;;;15.56;58.58;101875.59;7366786;19;20007;-66
2022/06/04 06:05:55;;;;;;;0.00;0.00;;;;;;;15.51;58.08;101853.78;7364672;19;20011;-66
2022/06/04 06:08:21;;;;;;;0.00;0.00;;;;;;;15.64;58.00;101870.16;7366517;19;20082;-65
2022/06/04 06:10:47;;;;;;;0.00;0.00;;;;;;;15.67;57.82;101874.50;7368527;19;20456;-65
2022/06/04 06:13:12;;;;;;;0.00;0.00;;;;;;;15.69;57.98;101872.69;7363857;19;20006;-65
2022/06/04 06:15:38;;;;;;;0.00;0.00;;;;;;;15.72;57.98;101870.84;7366956;19;20019;-66
2022/06/04 06:18:06;;;;;;;0.00;0.00;;;;;;;15.77;58.26;101876.00;7364510;19;20012;-64
2022/06/04 06:20:34;;;;;;;0.00;0.00;;;;;;;15.79;57.84;101880.31;7365737;19;20010;-66
2022/06/04 06:23:00;;;;;;;0.00;0.00;;;;;;;15.74;58.11;101869.03;7365601;19;20006;-64
2022/06/04 06:25:26;;;;;;;0.00;0.00;;;;;;;15.87;57.72;101887.16;7366251;19;20018;-66
2022/06/04 06:27:52;;;;;;;0.00;0.00;;;;;;;15.78;57.56;101870.69;7367375;19;20047;-66
2022/06/04 06:30:17;;;;;;;0.03;0.03;;;;;;;15.92;57.96;101880.00;7365224;19;21363;-63
2022/06/04 06:32:43;;;;;;;0.00;0.00;;;;;;;15.81;57.92;101862.72;7366456;19;20010;-66
2022/06/04 06:35:09;;;;;;;0.00;0.00;;;;;;;15.96;57.43;101886.91;7366136;19;20011;-67
2022/06/04 06:37:35;;;;;;;0.00;0.00;;;;;;;16.00;57.61;101880.66;7366030;19;20014;-67
2022/06/04 06:40:01;;;;;;;0.00;0.00;;;;;;;16.04;57.28;101884.94;7363271;19;20068;-64
2022/06/04 06:42:27;;;;;;;0.00;0.00;;;;;;;15.99;57.16;101871.88;7363805;19;20021;-66
2022/06/04 06:44:53;;;;;;;0.00;0.00;;;;;;;16.07;56.86;101874.34;7364089;19;20010;-66
2022/06/04 06:47:19;;;;;;;0.00;0.00;;;;;;;16.15;56.97;101887.28;7364919;19;20018;-66
2022/06/04 06:49:44;;;;;;;0.00;0.00;;;;;;;16.18;56.89;101871.41;7364466;19;20022;-64
2022/06/04 06:52:10;;;;;;;0.00;0.00;;;;;;;16.21;56.47;101884.47;7362165;19;20013;-66
2022/06/04 06:54:37;;;;;;;0.00;0.00;;;;;;;16.25;55.93;101870.31;7361703;19;20030;-66
2022/06/04 06:57:06;;;;;;;0.00;0.00;;;;;;;16.29;55.60;101871.97;7365517;19;20011;-66
2022/06/04 06:59:32;;;;;;;0.00;0.00;;;;;;;16.27;56.02;101869.38;7364032;19;20006;-66
2022/06/04 07:01:58;;;;;;;0.00;0.00;;;;;;;16.23;56.25;101861.59;7366023;19;20086;-66
2022/06/04 07:04:27;;;;;;;0.00;0.00;;;;;;;16.30;55.65;101871.91;7361629;19;20034;-66
2022/06/04 07:06:57;;;;;;;0.00;0.00;;;;;;;16.35;55.79;101880.56;7364850;19;20022;-66
2022/06/04 07:09:36;;;;;;;0.10;0.10;;;;;;;16.39;56.34;101875.22;7362872;19;22498;-66
2022/06/04 07:12:06;;;;;;;0.00;0.00;;;;;;;16.45;55.92;101880.31;7367153;19;20010;-66
2022/06/04 07:14:32;;;;;;;0.00;0.00;;;;;;;16.48;55.67;101872.31;7363880;19;20014;-63
2022/06/04 07:16:58;;;;;;;0.10;0.10;;;;;;;16.53;55.93;101875.69;7365092;19;20385;-67
2022/06/04 07:19:24;;;;;;;0.10;0.10;;;;;;;16.56;55.82;101873.81;7361995;19;20506;-66
2022/06/04 07:21:51;;;;;;;0.00;0.00;;;;;;;16.48;55.98;101856.50;7364627;19;20003;-64
2022/06/04 07:24:17;;;;;;;0.00;0.00;;;;;;;16.66;55.82;101879.69;7364873;19;21423;-66
2022/06/04 07:26:42;;;;;;;0.00;0.00;;;;;;;16.69;55.14;101876.97;7363695;19;20078;-66
2022/06/04 07:29:09;;;;;;;0.00;0.00;;;;;;;16.74;54.93;101882.16;7362199;19;20014;-66
2022/06/04 07:31:35;;;;;;;0.00;0.00;;;;;;;16.70;55.39;101875.19;7361632;19;20035;-64
2022/06/04 07:34:01;;;;;;;0.00;0.00;;;;;;;16.77;55.20;101877.63;7367013;19;20508;-66
2022/06/04 07:36:33;;;;;;;0.00;0.00;;;;;;;16.81;55.10;101884.53;7361094;19;20101;-66
2022/06/04 07:38:58;;;;;;;0.00;0.00;;;;;;;16.78;54.73;101884.66;7365828;19;20473;-65
2022/06/04 07:41:30;;;;;;;0.00;0.00;;;;;;;16.84;55.17;101884.47;7361880;19;20007;-66
2022/06/04 07:43:56;;;;;;;0.00;0.00;;;;;;;16.81;55.26;101881.03;7364872;19;20019;-64
2022/06/04 07:46:23;;;;;;;0.10;0.10;;;;;;;16.80;54.89;101880.19;7363954;19;20034;-65
2022/06/04 07:48:49;;;;;;;0.08;0.08;;;;;;;16.77;55.03;101877.63;7365065;19;20011;-66
2022/06/04 07:51:16;;;;;;;0.00;0.00;;;;;;;16.76;54.68;101875.03;7365072;19;20011;-63
2022/06/04 07:53:42;;;;;;;0.00;0.00;;;;;;;16.81;55.00;101873.13;7367494;19;20018;-63
2022/06/04 07:56:10;;;;;;;0.00;0.00;;;;;;;16.81;55.04;101874.00;7361828;19;20369;-66
2022/06/04 07:58:37;;;;;;;0.00;0.00;;;;;;;16.76;54.75;101875.91;7364843;19;20474;-66
2022/06/04 08:01:03;;;;;;;0.05;0.05;;;;;;;16.80;55.10;101876.69;7362321;19;20767;-66
2022/06/04 08:03:37;;;;;;;0.00;0.00;;;;;;;16.85;54.68;101875.63;7361811;19;20025;-66
2022/06/04 08:06:05;;;;;;;0.00;0.00;;;;;;;16.84;54.40;101875.69;7359928;19;20033;-65
2022/06/04 08:08:34;;;;;;;0.00;0.00;;;;;;;16.84;54.78;101868.63;7362214;19;20030;-64
2022/06/04 08:11:30;;;;;;;0.00;0.00;;;;;;;16.86;54.62;101874.72;7359026;19;20022;-65
2022/06/04 08:13:46;;;;;;;0.00;0.00;;;;;;;16.88;54.92;101869.41;7260663;19;2004759;-66
2022/06/04 08:16:12;;;;;;;0.00;0.00;;;;;;;16.91;54.81;101868.44;7359400;19;20517;-63
2022/06/04 08:18:37;;;;;;;0.00;0.00;;;;;;;16.93;54.59;101866.59;7362595;19;20017;-65
2022/06/04 08:21:06;;;;;;;0.10;0.10;;;;;;;17.00;54.53;101870.81;7360116;19;20030;-63
2022/06/04 08:23:31;;;;;;;0.00;0.00;;;;;;;17.01;54.49;101875.16;7365808;19;20077;-65
2022/06/04 08:25:57;;;;;;;0.00;0.00;;;;;;;17.07;54.07;101865.28;7363707;19;20101;-66
2022/06/04 08:28:22;;;;;;;0.00;0.00;;;;;;;17.13;54.24;101880.06;7358119;19;20014;-63
2022/06/04 08:30:48;;;;;;;0.05;0.05;;;;;;;17.15;54.19;101867.69;7357441;19;20017;-66
2022/06/04 08:33:14;;;;;;;0.10;0.10;;;;;;;17.23;53.32;101863.00;7364022;19;20007;-66
2022/06/04 08:35:39;;;;;;;0.10;0.10;;;;;;;17.30;53.78;101877.75;7362056;19;20797;-66
2022/06/04 08:38:06;;;;;;;0.00;0.00;;;;;;;17.34;53.54;101868.84;7363282;19;20038;-66
2022/06/04 08:40:36;;;;;;;0.00;0.00;;;;;;;17.43;53.11;101866.78;7364178;19;20070;-66
2022/06/04 08:43:12;;;;;;;0.00;0.00;;;;;;;17.49;53.33;101866.63;7367962;19;20002;-66
2022/06/04 08:45:39;;;;;;;0.10;0.10;;;;;;;17.53;53.02;101879.66;7363906;19;20007;-63
2022/06/04 08:48:15;;;;;;;0.10;0.10;;;;;;;17.64;53.02;101872.25;7367470;19;20037;-66
2022/06/04 08:50:41;;;;;;;0.00;0.00;;;;;;;17.71;52.88;101880.81;7366621;19;20014;-63
2022/06/04 08:53:16;;;;;;;0.00;0.00;;;;;;;17.86;52.80;101882.13;7365120;19;20350;-66
2022/06/04 08:59:14;;;;;;;0.10;0.10;;;;;;;18.09;52.50;101883.94;7256099;19;2004376;-66
2022/06/04 09:01:47;;;;;;;0.10;0.10;;;;;;;18.17;51.85;101875.75;7262357;19;2004258;-64
2022/06/04 09:04:31;;;;;;;0.10;0.10;;;;;;;18.25;52.26;101871.94;7365364;19;20374;-66
2022/06/04 09:07:14;;;;;;;0.00;0.00;;;;;;;18.30;52.24;101877.91;7357949;19;20011;-65
2022/06/04 14:29:48;;;;;;;0.00;0.00;;;;;;;29.36;30.74;101721.97;7399068;19;20810;-63
2022/06/04 14:32:19;;;;;;;0.00;0.00;;;;;;;29.64;29.31;101737.47;7293880;19;2004228;-62
2022/06/04 14:34:48;;;;;;;0.00;0.00;;;;;;;29.77;30.00;101733.72;7395584;19;20002;-62
2022/06/04 14:37:22;;;;;;;0.00;0.00;;;;;;;29.80;30.19;101719.97;7399595;19;20020;-62
2022/06/04 14:39:48;;;;;;;0.00;0.00;;;;;;;29.87;29.47;101732.75;7398623;19;20021;-62
2022/06/04 14:42:51;;;;;;;0.10;0.10;;;;;;;29.97;30.90;101739.03;7399787;19;20014;-62
2022/06/04 14:45:22;;;;;;;0.00;0.00;;;;;;;30.01;30.18;101734.25;7295788;19;2004465;-62
2022/06/04 14:48:07;;;;;;;0.10;0.10;;;;;;;30.01;31.49;101723.47;7395836;19;20014;-62
2022/06/04 14:50:38;;;;;;;0.00;0.00;;;;;;;29.96;30.55;101714.94;7395785;19;20006;-63
2022/06/04 14:53:08;;;;;;;0.10;0.10;;;;;;;29.90;30.57;101699.31;7386250;19;20006;-61
2022/06/04 14:55:55;;;;;;;0.00;0.00;;;;;;;29.94;29.78;101717.75;7394601;19;20014;-62
2022/06/04 14:58:41;;;;;;;0.10;0.10;;;;;;;30.12;32.33;101709.91;7393047;19;20018;-62
2022/06/04 15:01:20;;;;;;;0.10;0.10;;;;;;;30.21;31.06;101695.63;7390414;19;20002;-62
2022/06/04 15:04:15;;;;;;;0.10;0.10;;;;;;;30.38;30.99;101698.63;7395933;19;20022;-63
2022/06/04 15:06:46;;;;;;;0.10;0.10;;;;;;;30.43;30.20;101693.66;7293875;19;2004426;-61
2022/06/04 15:09:34;;;;;;;0.08;0.08;;;;;;;30.61;30.79;101689.28;7391987;19;20093;-62
2022/06/04 15:12:13;;;;;;;0.03;0.03;;;;;;;30.61;29.79;101686.56;7386621;19;20583;-62
2022/06/04 15:15:14;;;;;;;0.05;0.05;;;;;;;30.63;30.59;101681.91;7375248;19;20365;-62
2022/06/04 15:18:11;;;;;;;0.00;0.00;;;;;;;30.56;29.26;101685.28;7288762;19;2004324;-62
2022/06/04 15:20:52;;;;;;;0.10;0.10;;;;;;;30.42;29.54;101683.88;7289960;19;2004381;-63
2022/06/04 15:23:47;;;;;;;0.00;0.00;;;;;;;30.17;30.41;101680.72;7394504;19;20027;-63
2022/06/04 15:26:41;;;;;;;0.00;0.00;;;;;;;29.87;30.09;101669.97;7291765;19;2004453;-61
2022/06/04 15:35:27;;;;;;;0.10;0.10;;;;;;;28.73;30.48;101678.03;7264134;19;2004362;-62
2022/06/04 15:37:55;;;;;;;0.00;0.00;;;;;;;28.49;30.71;101689.84;7365329;19;20022;-62
2022/06/04 15:40:23;;;;;;;0.03;0.03;;;;;;;28.17;31.15;101681.69;7366864;19;20010;-62
2022/06/04 15:43:07;;;;;;;0.00;0.00;;;;;;;27.88;31.62;101692.13;7368032;19;20410;-62
2022/06/04 15:45:38;;;;;;;0.05;0.05;;;;;;;27.60;31.48;101683.53;7365806;19;20617;-63
2022/06/04 15:48:07;;;;;;;0.00;0.00;;;;;;;27.32;31.64;101678.63;7365588;19;20007;-63
2022/06/04 15:56:40;;;;;;;0.00;0.00;;;;;;;26.40;33.16;101677.50;7264944;19;2004538;-64
2022/06/04 15:59:21;;;;;;;0.10;0.10;;;;;;;26.17;33.37;101678.38;7364861;19;20010;-65
2022/06/04 16:01:49;;;;;;;0.00;0.00;;;;;;;25.90;34.27;101676.69;7365606;19;20967;-60
2022/06/04 16:04:16;;;;;;;0.00;0.00;;;;;;;25.70;34.83;101674.56;7368034;19;20805;-63
2022/06/04 16:06:51;;;;;;;0.05;0.05;;;;;;;25.58;34.60;101674.47;7365276;19;20111;-63
2022/06/04 16:09:17;;;;;;;0.00;0.00;;;;;;;25.47;34.57;101678.88;7363457;19;20022;-64
2022/06/04 16:11:48;;;;;;;0.00;0.00;;;;;;;25.42;34.97;101673.84;7366621;19;20010;-63
2022/06/04 16:14:50;;;;;;;0.10;0.10;;;;;;;25.36;35.36;101666.25;7365730;19;20022;-64
2022/06/04 16:17:39;;;;;;;0.03;0.03;;;;;;;25.30;34.92;101677.38;7264492;19;2004470;-63
2022/06/04 16:20:11;;;;;;;0.10;0.10;;;;;;;25.25;35.34;101668.81;7365450;19;20550;-64
2022/06/04 16:22:43;;;;;;;0.10;0.10;;;;;;;25.28;35.68;101671.25;7367742;19;20484;-62
2022/06/04 16:25:27;;;;;;;0.10;0.10;;;;;;;25.30;35.50;101674.69;7365257;19;20019;-64
2022/06/04 16:28:07;;;;;;;0.00;0.00;;;;;;;25.38;35.66;101671.47;7364644;19;20778;-63
2022/06/04 16:30:35;;;;;;;0.03;0.03;;;;;;;25.35;35.68;101662.72;7367232;19;20109;-63
2022/06/04 16:33:06;;;;;;;0.00;0.00;;;;;;;25.39;35.51;101657.13;7360612;19;19998;-63
2022/06/04 16:35:47;;;;;;;0.10;0.10;;;;;;;25.41;36.00;101661.44;7368390;19;20369;-63
2022/06/04 16:38:35;;;;;;;0.10;0.10;;;;;;;25.40;35.69;101657.06;7364508;19;20033;-63
2022/06/04 16:44:11;;;;;;;0.00;0.00;;;;;;;25.55;35.39;101661.31;7366958;19;20041;-63
2022/06/04 16:46:43;;;;;;;0.10;0.10;;;;;;;25.61;35.27;101658.22;7359482;19;20006;-63
2022/06/04 16:52:01;;;;;;;0.10;0.10;;;;;;;25.85;36.79;101654.75;7366692;19;20085;-63
2022/06/04 16:54:30;;;;;;;0.10;0.10;;;;;;;26.06;36.15;101644.34;7367744;19;20025;-63
2022/06/04 16:56:55;;;;;;;0.10;0.10;;;;;;;26.33;35.01;101633.41;7364764;19;20022;-62
2022/06/04 16:59:20;;;;;;;0.10;0.10;;;;;;;26.60;34.93;101639.41;7366442;19;20011;-63
2022/06/04 17:01:58;;;;;;;0.10;0.10;;;;;;;26.91;34.59;101637.06;7366142;19;20023;-63
2022/06/04 17:05:03;;;;;;;0.10;0.10;;;;;;;27.12;35.00;101639.97;7364551;19;20374;-62
2022/06/04 17:07:50;;;;;;;0.10;0.10;;;;;;;27.19;34.55;101632.31;7263649;19;2004329;-62
2022/06/04 17:10:41;;;;;;;0.03;0.03;;;;;;;27.30;34.32;101635.00;7366598;19;20801;-63
2022/06/04 17:13:40;;;;;;;0.00;0.00;;;;;;;27.32;33.45;101633.03;7264376;19;2004543;-61
2022/06/04 17:16:44;;;;;;;0.08;0.08;;;;;;;27.38;34.25;101627.22;7262057;19;2004214;-62
2022/06/04 17:19:15;;;;;;;0.00;0.00;;;;;;;27.41;33.28;101621.59;7261717;19;2004328;-62
2022/06/04 17:22:22;;;;;;;0.10;0.10;;;;;;;27.54;34.53;101625.00;7360792;19;20053;-61
2022/06/04 17:25:25;;;;;;;0.00;0.00;;;;;;;27.59;33.56;101620.13;7260822;19;2004498;-60
2022/06/04 17:28:06;;;;;;;0.00;0.00;;;;;;;27.58;33.19;101628.31;7259907;19;2004182;-62
2022/06/04 17:30:45;;;;;;;0.00;0.00;;;;;;;27.46;32.75;101624.75;7364009;19;20021;-65
2022/06/04 17:33:18;;;;;;;0.10;0.10;;;;;;;27.31;32.92;101620.59;7361347;19;20442;-64
2022/06/04 17:36:08;;;;;;;0.10;0.10;;;;;;;27.07;33.02;101618.88;7360460;19;20006;-65